Time;durP1;ratioP1;P1;durP2;ratioP2;P2;SDS_P1;SDS_P2;PMS_P1;PMS_P2;Temp;Humidity;BMP_temperature;BMP_pressure;BME280_temperature;BME280_humidity;BME280_pressure;Samples;Min_cycle;Max_cycle;Signal;HPM_P1;HPM_P2
2021/12/23 00:02:01;;;;;;;70.32;25.75;;;-5.50;99.90;;;;;;4976744;28;20113;-60
2021/12/23 00:04:28;;;;;;;62.17;24.10;;;-5.50;99.90;;;;;;4977071;28;20054;-60
2021/12/23 00:06:55;;;;;;;69.32;24.70;;;-5.50;99.90;;;;;;4976870;28;20076;-60
2021/12/23 00:09:26;;;;;;;63.13;25.23;;;-5.50;99.90;;;;;;4976598;28;20042;-60
2021/12/23 00:11:53;;;;;;;90.68;30.92;;;-5.50;99.90;;;;;;4976629;28;20050;-60
2021/12/23 00:14:20;;;;;;;86.30;29.38;;;-5.60;99.90;;;;;;4975307;28;20799;-60
2021/12/23 00:16:49;;;;;;;82.38;27.88;;;-5.60;99.90;;;;;;4979011;28;20385;-60
2021/12/23 00:24:42;;;;;;;84.90;30.55;;;-5.60;99.90;;;;;;4995876;28;20307;-60
2021/12/23 00:27:09;;;;;;;86.18;29.27;;;-5.70;99.90;;;;;;4996988;28;20459;-60
2021/12/23 00:29:37;;;;;;;71.25;26.38;;;-5.70;99.90;;;;;;4995374;28;20258;-60
2021/12/23 00:32:07;;;;;;;84.25;28.38;;;-5.70;99.90;;;;;;4996019;28;20568;-60
2021/12/23 00:34:37;;;;;;;74.82;25.52;;;-5.70;99.90;;;;;;4996625;28;20483;-60
2021/12/23 00:37:08;;;;;;;67.05;27.20;;;-5.70;99.90;;;;;;4979795;28;20583;-60
2021/12/23 00:39:34;;;;;;;66.88;25.40;;;-5.70;99.90;;;;;;4976106;28;20054;-60
2021/12/23 00:42:07;;;;;;;71.22;25.73;;;-5.70;99.90;;;;;;4974186;28;20046;-60
2021/12/23 00:44:36;;;;;;;59.03;21.88;;;-5.70;99.90;;;;;;4977189;28;20065;-60
2021/12/23 00:47:03;;;;;;;50.33;18.67;;;-5.70;99.90;;;;;;4977064;28;20495;-60
2021/12/23 00:49:30;;;;;;;40.58;15.18;;;-5.70;99.90;;;;;;4975719;28;20093;-60
2021/12/23 00:51:58;;;;;;;31.02;13.85;;;-5.80;99.90;;;;;;4976072;28;20050;-59
2021/12/23 00:54:25;;;;;;;34.00;13.57;;;-5.80;99.90;;;;;;4984897;28;20457;-60
2021/12/23 00:56:52;;;;;;;27.35;12.82;;;-5.90;99.90;;;;;;4977075;28;20532;-60
2021/12/23 00:59:19;;;;;;;24.90;11.68;;;-5.90;99.90;;;;;;4975677;28;20268;-60
2021/12/23 01:01:47;;;;;;;28.70;12.45;;;-6.00;99.90;;;;;;4976185;28;20102;-60
2021/12/23 01:04:15;;;;;;;31.08;14.38;;;-6.00;99.90;;;;;;4976675;28;20046;-59
2021/12/23 01:06:42;;;;;;;34.35;14.88;;;-6.10;99.90;;;;;;4976435;28;20061;-60
2021/12/23 01:09:10;;;;;;;42.85;15.98;;;-6.20;99.90;;;;;;4975866;28;20085;-60
2021/12/23 01:11:37;;;;;;;42.38;17.00;;;-6.20;99.90;;;;;;4975717;28;20046;-60
2021/12/23 01:19:18;;;;;;;54.15;21.67;;;-6.30;99.90;;;;;;4986247;28;20049;-60
2021/12/23 01:21:45;;;;;;;56.10;21.95;;;-6.30;99.90;;;;;;4994245;28;20147;-60
2021/12/23 01:24:12;;;;;;;55.92;21.65;;;-6.30;99.90;;;;;;4995916;28;20392;-60
2021/12/23 01:26:40;;;;;;;65.35;24.58;;;-6.30;99.90;;;;;;4995756;28;20041;-60
2021/12/23 01:29:07;;;;;;;71.30;23.92;;;-6.30;99.90;;;;;;4995618;28;20053;-60
2021/12/23 01:31:39;;;;;;;65.75;24.50;;;-6.30;99.90;;;;;;4995087;28;20045;-60
2021/12/23 01:34:06;;;;;;;59.03;25.00;;;-6.30;99.90;;;;;;4995856;28;20052;-60
2021/12/23 01:36:33;;;;;;;54.13;22.35;;;-6.30;99.90;;;;;;4983321;28;20078;-60
2021/12/23 01:39:00;;;;;;;51.75;19.52;;;-6.30;99.90;;;;;;4974878;28;20038;-60
2021/12/23 01:41:28;;;;;;;52.47;18.52;;;-6.30;99.90;;;;;;4975767;28;20393;-60
2021/12/23 01:43:56;;;;;;;45.28;18.45;;;-6.30;99.90;;;;;;4975080;28;20456;-60
2021/12/23 01:46:23;;;;;;;43.40;17.00;;;-6.30;99.90;;;;;;4976298;28;20046;-60
2021/12/23 01:48:51;;;;;;;35.78;15.00;;;-6.30;99.90;;;;;;4975022;28;20043;-60
2021/12/23 01:51:19;;;;;;;37.10;15.95;;;-6.30;99.90;;;;;;4975995;28;20109;-60
2021/12/23 01:53:45;;;;;;;32.17;13.02;;;-6.30;99.90;;;;;;4984449;28;20103;-60
2021/12/23 01:56:12;;;;;;;30.33;11.43;;;-6.30;99.90;;;;;;4982891;28;20057;-60
2021/12/23 01:58:41;;;;;;;27.05;11.40;;;-6.30;99.90;;;;;;4980443;28;20070;-60
2021/12/23 02:01:09;;;;;;;29.42;11.43;;;-6.40;99.90;;;;;;4979474;28;20120;-60
2021/12/23 02:03:38;;;;;;;20.48;9.30;;;-6.40;99.90;;;;;;4979453;28;20046;-60
2021/12/23 02:06:05;;;;;;;22.52;9.98;;;-6.40;99.90;;;;;;4979536;28;20986;-60
2021/12/23 02:08:34;;;;;;;24.70;10.43;;;-6.50;99.90;;;;;;4979509;28;20068;-60
2021/12/23 02:11:02;;;;;;;27.00;10.25;;;-6.50;99.90;;;;;;4978503;28;20609;-59
2021/12/23 02:13:29;;;;;;;22.35;10.25;;;-6.50;99.90;;;;;;4979550;28;20046;-60
2021/12/23 02:15:57;;;;;;;21.40;9.90;;;-6.50;99.90;;;;;;4979726;28;20077;-60
2021/12/23 02:18:25;;;;;;;21.45;9.00;;;-6.50;99.90;;;;;;4984681;28;20034;-60
2021/12/23 02:20:53;;;;;;;18.92;8.15;;;-6.60;99.90;;;;;;4998357;28;20103;-60
2021/12/23 02:23:20;;;;;;;19.05;8.25;;;-6.60;99.90;;;;;;4997462;28;20045;-60
2021/12/23 02:25:47;;;;;;;25.27;9.23;;;-6.50;99.90;;;;;;4998636;28;20046;-60
2021/12/23 02:28:20;;;;;;;20.05;9.55;;;-6.50;99.90;;;;;;4998734;28;20042;-60
2021/12/23 02:30:51;;;;;;;17.50;7.35;;;-6.60;99.90;;;;;;4997346;28;20073;-60
2021/12/23 02:33:25;;;;;;;17.42;7.63;;;-6.50;99.90;;;;;;4998802;28;20054;-60
2021/12/23 02:35:55;;;;;;;20.42;8.68;;;-6.50;99.90;;;;;;5012892;28;20042;-60
2021/12/23 02:38:22;;;;;;;33.95;13.50;;;-6.50;99.90;;;;;;4999271;28;20124;-60
2021/12/23 02:40:49;;;;;;;35.50;12.85;;;-6.50;99.90;;;;;;4997561;28;20050;-60
2021/12/23 02:43:20;;;;;;;22.25;9.57;;;-6.50;99.90;;;;;;4998012;28;20647;-60
2021/12/23 02:45:48;;;;;;;21.92;8.82;;;-6.50;99.90;;;;;;4998281;28;20038;-60
2021/12/23 02:48:29;;;;;;;20.52;8.93;;;-6.50;99.90;;;;;;4997248;28;20049;-60
2021/12/23 02:50:57;;;;;;;18.10;7.13;;;-6.50;99.90;;;;;;4997003;28;20567;-61
2021/12/23 02:53:24;;;;;;;16.80;6.10;;;-6.50;99.90;;;;;;4998362;28;20121;-61
2021/12/23 02:55:54;;;;;;;13.65;5.45;;;-6.40;99.90;;;;;;4994403;28;20064;-60
2021/12/23 02:58:21;;;;;;;5.40;2.50;;;-6.40;99.90;;;;;;4998235;28;20509;-60
2021/12/23 03:00:51;;;;;;;4.75;2.22;;;-6.30;99.90;;;;;;4997272;28;20541;-61
2021/12/23 03:03:19;;;;;;;4.93;1.90;;;-6.20;99.90;;;;;;4997170;28;20054;-60
2021/12/23 03:05:50;;;;;;;2.20;1.77;;;-6.10;99.90;;;;;;4998102;28;20312;-60
2021/12/23 03:08:48;;;;;;;7.38;2.30;;;-5.90;99.90;;;;;;4998321;28;20109;-60
2021/12/23 03:11:18;;;;;;;4.05;1.92;;;-5.80;99.90;;;;;;4995602;28;20532;-61
2021/12/23 03:13:45;;;;;;;4.85;2.83;;;-5.70;99.90;;;;;;4997151;28;20139;-60
2021/12/23 03:16:13;;;;;;;7.03;3.00;;;-5.60;99.90;;;;;;4997913;28;20054;-61
2021/12/23 03:18:40;;;;;;;8.18;4.22;;;-5.60;99.90;;;;;;4995678;28;20053;-60
2021/12/23 03:21:07;;;;;;;10.63;4.43;;;-5.60;99.90;;;;;;4997153;28;20077;-61
2021/12/23 03:23:34;;;;;;;10.98;5.70;;;-5.60;99.90;;;;;;4998092;28;20111;-60
2021/12/23 03:26:01;;;;;;;10.35;4.10;;;-5.60;99.90;;;;;;4997891;28;20046;-61
2021/12/23 03:28:28;;;;;;;8.57;4.10;;;-5.60;99.90;;;;;;4997739;28;20052;-61
2021/12/23 03:30:55;;;;;;;6.93;3.78;;;-5.60;99.90;;;;;;4996474;28;20136;-60
2021/12/23 03:33:22;;;;;;;6.30;3.00;;;-5.60;99.90;;;;;;4998065;28;20110;-60
2021/12/23 03:35:48;;;;;;;9.55;3.80;;;-5.60;99.90;;;;;;4990792;28;20066;-60
2021/12/23 03:38:16;;;;;;;8.10;3.95;;;-5.70;99.90;;;;;;4978314;28;20742;-61
2021/12/23 03:40:44;;;;;;;14.70;3.90;;;-5.70;99.90;;;;;;4977565;28;20050;-60
2021/12/23 03:43:12;;;;;;;8.23;3.78;;;-5.70;99.90;;;;;;4977449;28;20109;-61
2021/12/23 03:45:39;;;;;;;9.88;4.82;;;-5.80;99.90;;;;;;4978430;28;20097;-60
2021/12/23 03:48:06;;;;;;;16.75;6.05;;;-5.80;99.90;;;;;;4976126;28;20276;-60
2021/12/23 03:50:33;;;;;;;14.80;6.47;;;-5.80;99.90;;;;;;4976595;28;20134;-60
2021/12/23 03:53:00;;;;;;;17.52;6.75;;;-5.90;99.90;;;;;;4977861;28;20446;-60
2021/12/23 03:55:27;;;;;;;16.52;7.13;;;-5.90;99.90;;;;;;4986234;28;20042;-63
2021/12/23 03:57:54;;;;;;;18.17;7.18;;;-6.00;99.90;;;;;;4977528;28;20046;-63
2021/12/23 04:00:22;;;;;;;16.15;6.15;;;-6.00;99.90;;;;;;4979175;28;20066;-63
2021/12/23 04:02:50;;;;;;;12.30;6.00;;;-6.00;99.90;;;;;;4996842;28;20077;-64
2021/12/23 04:05:19;;;;;;;16.10;5.78;;;-6.00;99.90;;;;;;4993566;28;20530;-65
2021/12/23 04:07:46;;;;;;;10.48;4.65;;;-6.00;99.90;;;;;;5012201;28;20490;-64
2021/12/23 04:10:16;;;;;;;14.43;5.53;;;-6.00;99.90;;;;;;4996262;28;20050;-64
2021/12/23 04:12:44;;;;;;;11.75;5.22;;;-6.00;99.90;;;;;;4996431;28;20042;-64
2021/12/23 04:15:11;;;;;;;11.57;4.88;;;-5.90;99.90;;;;;;4997402;28;20045;-63
2021/12/23 04:17:38;;;;;;;19.70;8.05;;;-5.90;99.90;;;;;;4987196;28;20109;-66
2021/12/23 04:20:32;;;;;;;15.60;7.10;;;-5.90;99.90;;;;;;4993785;28;20101;-63
2021/12/23 04:22:56;;;;;;;24.15;9.13;;;-5.80;99.90;;;;;;4996460;28;20049;-64
2021/12/23 04:25:25;;;;;;;20.80;8.57;;;-5.80;99.90;;;;;;4997127;28;20377;-64
2021/12/23 04:27:54;;;;;;;36.03;12.75;;;-5.70;99.90;;;;;;4996178;28;20058;-64
2021/12/23 04:30:21;;;;;;;33.63;11.40;;;-5.70;99.90;;;;;;4996337;28;20038;-64
2021/12/23 04:32:48;;;;;;;21.40;8.82;;;-5.70;99.90;;;;;;5010935;28;20061;-64
2021/12/23 04:35:15;;;;;;;22.85;8.63;;;-5.70;99.90;;;;;;4994980;28;20464;-64
2021/12/23 04:37:42;;;;;;;14.15;6.45;;;-5.70;99.90;;;;;;4976543;28;20452;-64
2021/12/23 04:40:11;;;;;;;15.95;7.43;;;-5.70;99.90;;;;;;4976890;28;20125;-63
2021/12/23 04:42:39;;;;;;;16.08;7.28;;;-5.70;99.90;;;;;;4975989;28;20057;-64
2021/12/23 04:45:07;;;;;;;19.33;7.70;;;-5.70;99.90;;;;;;4976940;28;20053;-63
2021/12/23 04:47:34;;;;;;;17.85;7.57;;;-5.80;99.90;;;;;;4976807;28;20355;-63
2021/12/23 04:50:02;;;;;;;20.42;6.82;;;-5.80;99.90;;;;;;4974440;28;20207;-63
2021/12/23 04:52:29;;;;;;;14.68;6.47;;;-5.80;99.90;;;;;;4975853;28;20050;-64
2021/12/23 04:54:56;;;;;;;13.63;5.65;;;-5.90;99.90;;;;;;4985233;28;20038;-64
2021/12/23 04:57:23;;;;;;;15.93;7.03;;;-5.90;99.90;;;;;;4976561;28;20497;-63
2021/12/23 04:59:49;;;;;;;14.40;6.75;;;-5.90;99.90;;;;;;4975456;28;20054;-63
2021/12/23 05:02:16;;;;;;;18.48;8.10;;;-5.90;99.90;;;;;;4976626;28;20508;-63
2021/12/23 05:04:43;;;;;;;23.55;7.90;;;-5.90;99.90;;;;;;4976862;28;20046;-63
2021/12/23 05:07:10;;;;;;;16.10;6.45;;;-6.00;99.90;;;;;;4976814;28;20053;-63
2021/12/23 05:09:37;;;;;;;11.20;4.55;;;-6.00;99.90;;;;;;4976279;28;20536;-64
2021/12/23 05:12:04;;;;;;;9.85;4.13;;;-6.00;99.90;;;;;;4975979;28;20046;-63
2021/12/23 05:14:31;;;;;;;11.48;4.57;;;-6.00;99.90;;;;;;4976740;28;20046;-65
2021/12/23 05:16:57;;;;;;;10.90;3.97;;;-6.00;99.90;;;;;;4978511;28;20046;-65
2021/12/23 05:19:24;;;;;;;14.60;5.30;;;-6.00;99.90;;;;;;4986936;28;21150;-66
2021/12/23 05:21:51;;;;;;;12.07;5.88;;;-6.00;99.90;;;;;;4996075;28;20046;-65
2021/12/23 05:24:18;;;;;;;13.68;6.05;;;-6.00;99.90;;;;;;5010210;28;20046;-62
2021/12/23 05:26:44;;;;;;;16.35;6.35;;;-6.00;99.90;;;;;;4995141;28;20053;-63
2021/12/23 05:29:11;;;;;;;13.00;6.10;;;-6.00;99.90;;;;;;4995298;28;20708;-63
2021/12/23 05:31:39;;;;;;;16.95;6.25;;;-6.00;99.90;;;;;;4995589;28;20081;-63
2021/12/23 05:34:06;;;;;;;13.25;6.10;;;-6.00;99.90;;;;;;4995164;28;20225;-63
2021/12/23 05:36:33;;;;;;;13.85;6.78;;;-6.00;99.90;;;;;;4983274;28;20467;-63
2021/12/23 05:38:59;;;;;;;12.70;6.53;;;-6.10;99.90;;;;;;4976157;28;20567;-63
2021/12/23 05:41:27;;;;;;;18.13;7.80;;;-6.00;99.90;;;;;;4975382;28;20382;-64
2021/12/23 05:43:55;;;;;;;15.82;7.00;;;-6.10;99.90;;;;;;4976248;28;20307;-65
2021/12/23 05:46:23;;;;;;;11.13;6.30;;;-6.10;99.90;;;;;;4976157;28;20089;-66
2021/12/23 05:48:50;;;;;;;16.63;7.47;;;-6.10;99.90;;;;;;4976033;28;20323;-65
2021/12/23 05:51:17;;;;;;;13.57;6.13;;;-6.10;99.90;;;;;;4974291;28;20042;-65
2021/12/23 05:53:44;;;;;;;17.00;7.03;;;-6.10;99.90;;;;;;4980238;28;20078;-64
2021/12/23 05:56:10;;;;;;;14.05;5.85;;;-6.10;99.90;;;;;;4978832;28;20038;-65
2021/12/23 05:58:37;;;;;;;11.18;5.53;;;-6.20;99.90;;;;;;4976014;28;20174;-64
2021/12/23 06:01:04;;;;;;;15.68;6.00;;;-6.20;99.90;;;;;;4975234;28;20047;-64
2021/12/23 06:03:31;;;;;;;11.50;5.93;;;-6.20;99.90;;;;;;4974901;28;20548;-65
2021/12/23 06:05:58;;;;;;;17.60;6.63;;;-6.20;99.90;;;;;;4975800;28;20450;-63
2021/12/23 06:08:25;;;;;;;16.13;6.97;;;-6.20;99.90;;;;;;4990499;28;20049;-64
2021/12/23 06:10:52;;;;;;;16.70;7.43;;;-6.30;99.90;;;;;;4974224;28;20049;-63
2021/12/23 06:13:19;;;;;;;21.15;11.73;;;-6.30;99.90;;;;;;4975359;28;20092;-56
2021/12/23 06:15:45;;;;;;;20.27;8.73;;;-6.30;99.90;;;;;;4975451;28;20858;-57
2021/12/23 06:18:12;;;;;;;25.17;9.15;;;-6.30;99.90;;;;;;4989929;28;20053;-58
2021/12/23 06:20:40;;;;;;;23.48;8.40;;;-6.30;99.90;;;;;;4994594;28;20391;-56
2021/12/23 06:23:07;;;;;;;22.98;9.32;;;-6.30;99.90;;;;;;4995216;28;20054;-57
2021/12/23 06:25:33;;;;;;;22.20;9.73;;;-6.30;99.90;;;;;;4993976;28;20132;-58
2021/12/23 06:28:00;;;;;;;26.58;9.85;;;-6.30;99.90;;;;;;4995103;28;20534;-56
2021/12/23 06:30:27;;;;;;;24.83;9.55;;;-6.30;99.90;;;;;;4993643;28;20059;-55
2021/12/23 06:32:56;;;;;;;26.95;10.57;;;-6.30;99.90;;;;;;4994175;28;20214;-57
2021/12/23 06:35:27;;;;;;;33.72;10.60;;;-6.30;99.90;;;;;;4991746;28;20042;-57
2021/12/23 06:37:55;;;;;;;25.98;11.15;;;-6.30;99.90;;;;;;4975668;28;20046;-56
2021/12/23 06:40:22;;;;;;;23.80;10.65;;;-6.30;99.90;;;;;;4976904;28;20053;-56
2021/12/23 06:42:49;;;;;;;47.45;14.30;;;-6.30;99.90;;;;;;4978176;28;20082;-57
2021/12/23 06:45:16;;;;;;;26.67;13.65;;;-6.30;99.90;;;;;;4979501;28;20411;-55
2021/12/23 06:47:44;;;;;;;35.55;13.27;;;-6.30;99.90;;;;;;4978666;28;20152;-55
2021/12/23 06:50:12;;;;;;;28.38;10.82;;;-6.30;99.90;;;;;;4978358;28;20086;-57
2021/12/23 06:52:40;;;;;;;23.63;10.90;;;-6.30;99.90;;;;;;4978178;28;20531;-55
2021/12/23 06:55:08;;;;;;;21.55;10.82;;;-6.30;99.90;;;;;;4987045;28;20039;-53
2021/12/23 06:57:35;;;;;;;20.48;9.77;;;-6.30;99.90;;;;;;4978717;28;20042;-54
2021/12/23 07:00:07;;;;;;;14.65;6.20;;;-6.30;99.90;;;;;;4983228;28;20388;-53
2021/12/23 07:02:38;;;;;;;17.92;6.90;;;-6.30;99.90;;;;;;4997833;28;20060;-54
2021/12/23 07:05:06;;;;;;;19.48;6.50;;;-6.20;99.90;;;;;;4998110;28;20053;-54
2021/12/23 07:07:41;;;;;;;11.45;5.40;;;-6.20;99.90;;;;;;4998416;28;20062;-54
2021/12/23 07:10:09;;;;;;;13.63;5.43;;;-6.10;99.90;;;;;;4997319;28;20459;-54
2021/12/23 07:12:36;;;;;;;11.18;4.50;;;-6.00;99.90;;;;;;4997843;28;20104;-54
2021/12/23 07:15:03;;;;;;;9.85;4.10;;;-5.90;99.90;;;;;;4998102;28;20073;-55
2021/12/23 07:17:30;;;;;;;10.52;3.42;;;-5.80;99.90;;;;;;4989145;28;20050;-55
2021/12/23 07:19:57;;;;;;;8.02;3.38;;;-5.70;99.90;;;;;;4993227;28;20103;-55
2021/12/23 07:22:23;;;;;;;4.95;2.63;;;-5.60;99.90;;;;;;4997481;28;20383;-56
2021/12/23 07:24:50;;;;;;;5.75;2.97;;;-5.40;99.90;;;;;;4997658;28;20104;-56
2021/12/23 07:27:17;;;;;;;7.43;3.40;;;-5.30;99.90;;;;;;4997575;28;20054;-56
2021/12/23 07:29:44;;;;;;;5.28;3.50;;;-5.20;99.90;;;;;;5011779;28;20046;-56
2021/12/23 07:32:11;;;;;;;7.82;2.63;;;-5.10;99.90;;;;;;4997162;28;20539;-56
2021/12/23 07:34:40;;;;;;;6.15;2.95;;;-5.00;99.90;;;;;;4997314;28;20563;-58
2021/12/23 07:37:08;;;;;;;8.10;3.47;;;-4.70;99.90;;;;;;4980868;28;20035;-56
2021/12/23 07:39:38;;;;;;;7.03;3.33;;;-4.50;99.90;;;;;;4977309;28;20042;-57
2021/12/23 07:42:26;;;;;;;6.90;3.30;;;-4.30;99.90;;;;;;4976143;28;20137;-56
2021/12/23 07:44:54;;;;;;;10.48;5.07;;;-3.90;99.90;;;;;;4978219;28;20086;-55
2021/12/23 07:47:21;;;;;;;11.63;4.40;;;-3.60;99.90;;;;;;4977764;28;20047;-55
2021/12/23 07:49:47;;;;;;;8.27;3.30;;;-3.20;99.90;;;;;;4976216;28;20100;-55
2021/12/23 07:52:15;;;;;;;8.32;4.10;;;-2.90;99.90;;;;;;4978005;28;20327;-56
2021/12/23 07:54:42;;;;;;;6.45;3.15;;;-2.50;99.90;;;;;;4985879;28;20066;-55
2021/12/23 07:57:08;;;;;;;6.70;2.88;;;-2.10;99.90;;;;;;4978069;28;20034;-56
2021/12/23 07:59:35;;;;;;;6.00;2.70;;;-1.70;99.90;;;;;;4976780;28;20039;-56
2021/12/23 08:02:02;;;;;;;8.40;3.60;;;-1.40;99.90;;;;;;4977344;28;20522;-55
2021/12/23 08:04:30;;;;;;;8.52;4.57;;;-1.10;99.90;;;;;;4976840;28;20054;-56
2021/12/23 08:06:58;;;;;;;10.85;3.85;;;-0.90;99.90;;;;;;4978069;28;20514;-56
2021/12/23 08:09:25;;;;;;;6.55;3.25;;;-0.70;99.90;;;;;;4991129;28;20050;-56
2021/12/23 08:11:52;;;;;;;6.72;3.75;;;-0.60;99.90;;;;;;4975241;28;20318;-55
2021/12/23 08:14:19;;;;;;;7.10;4.00;;;-0.60;99.90;;;;;;4977661;28;20057;-56
2021/12/23 08:16:47;;;;;;;6.63;3.50;;;-0.40;99.90;;;;;;4978998;28;20509;-55
2021/12/23 08:19:14;;;;;;;11.52;3.58;;;-0.30;99.90;;;;;;4986806;28;20045;-56
2021/12/23 08:21:41;;;;;;;9.75;4.47;;;-0.30;99.90;;;;;;4995829;28;20388;-55
2021/12/23 08:24:08;;;;;;;6.95;3.60;;;-0.20;99.90;;;;;;4996380;28;20481;-56
2021/12/23 08:26:41;;;;;;;8.25;4.10;;;-0.10;99.90;;;;;;4997994;28;20048;-55
2021/12/23 08:29:08;;;;;;;6.35;3.42;;;0.00;99.90;;;;;;4996381;28;20128;-56
2021/12/23 08:31:36;;;;;;;9.07;4.13;;;0.00;99.90;;;;;;4996142;28;20038;-56
2021/12/23 08:34:04;;;;;;;8.85;4.10;;;0.00;99.90;;;;;;4996478;28;20403;-56
2021/12/23 08:36:31;;;;;;;9.18;4.00;;;0.00;99.90;;;;;;4985174;28;20109;-56
2021/12/23 08:38:58;;;;;;;5.97;3.13;;;0.10;99.90;;;;;;4974132;28;20057;-56
2021/12/23 08:41:25;;;;;;;5.75;3.13;;;0.20;99.90;;;;;;4976875;28;20042;-56
2021/12/23 08:43:52;;;;;;;6.38;3.42;;;0.30;99.90;;;;;;4976294;28;20057;-56
2021/12/23 08:46:19;;;;;;;5.82;3.15;;;0.30;99.90;;;;;;4976922;28;20513;-53
2021/12/23 08:48:46;;;;;;;8.15;3.88;;;0.50;99.90;;;;;;4976621;28;20061;-50
2021/12/23 08:51:13;;;;;;;8.00;3.53;;;0.60;99.90;;;;;;4977081;28;20042;-53
2021/12/23 08:53:40;;;;;;;8.80;3.88;;;0.70;99.90;;;;;;4980919;28;20069;-51
2021/12/23 08:56:08;;;;;;;;;;;0.90;99.90;;;;;;4993003;28;20501;-49
2021/12/23 08:58:36;;;;;;;8.57;3.83;;;1.00;99.90;;;;;;4996611;28;20377;-52
2021/12/23 09:01:04;;;;;;;6.20;3.70;;;1.10;99.90;;;;;;4992223;28;20057;-56
2021/12/23 09:03:33;;;;;;;8.35;4.15;;;1.10;99.90;;;;;;4995884;28;20049;-57
2021/12/23 09:06:01;;;;;;;14.15;6.47;;;1.20;99.90;;;;;;4995559;28;20490;-56
2021/12/23 09:08:29;;;;;;;8.27;3.25;;;1.30;99.90;;;;;;4996122;28;20060;-61
2021/12/23 09:10:57;;;;;;;6.28;3.13;;;1.50;99.90;;;;;;4995562;28;20045;-54
2021/12/23 09:13:28;;;;;;;7.90;3.60;;;1.80;99.90;;;;;;4995222;28;20050;-54
2021/12/23 09:15:56;;;;;;;7.13;3.65;;;2.10;99.90;;;;;;4995784;28;20042;-53
2021/12/23 09:18:23;;;;;;;9.77;4.38;;;2.40;99.90;;;;;;4992890;28;20038;-56
2021/12/23 09:20:52;;;;;;;6.55;3.72;;;2.80;97.70;;;;;;5009791;28;20552;-54
2021/12/23 09:23:19;;;;;;;6.85;3.42;;;3.20;97.30;;;;;;4994510;28;20471;-56
2021/12/23 09:25:47;;;;;;;13.07;3.65;;;3.50;93.20;;;;;;5010155;28;20289;-57
2021/12/23 09:33:44;;;;;;;7.65;4.07;;;4.10;86.70;;;;;;4990741;28;20046;-56
2021/12/23 09:36:12;;;;;;;8.45;3.78;;;4.30;85.60;;;;;;4986541;28;20069;-57
2021/12/23 09:38:39;;;;;;;8.27;4.00;;;4.40;86.80;;;;;;4996231;28;20087;-58
2021/12/23 09:41:11;;;;;;;5.38;3.67;;;4.60;86.30;;;;;;4994689;28;20136;-57
2021/12/23 09:43:40;;;;;;;10.15;4.43;;;4.70;81.50;;;;;;4995559;28;20535;-57
2021/12/23 09:46:10;;;;;;;7.50;2.83;;;4.70;81.20;;;;;;4995814;28;20408;-56
2021/12/23 09:48:40;;;;;;;6.88;3.40;;;4.70;82.90;;;;;;4997300;28;20130;-58
2021/12/23 09:51:07;;;;;;;16.98;3.92;;;4.80;83.30;;;;;;4996203;28;20162;-58
2021/12/23 09:53:36;;;;;;;6.28;3.20;;;4.90;87.70;;;;;;4992537;28;20108;-58
2021/12/23 09:56:04;;;;;;;7.15;3.20;;;5.00;88.10;;;;;;4979863;28;20599;-58
2021/12/23 09:58:31;;;;;;;3.70;2.30;;;4.90;84.50;;;;;;4976555;28;20077;-57
2021/12/23 10:00:59;;;;;;;;;;;4.80;79.60;;;;;;4975572;28;20619;-56
2021/12/23 10:03:27;;;;;;;6.30;2.80;;;4.60;75.70;;;;;;4975157;28;20640;-58
2021/12/23 10:05:56;;;;;;;4.18;2.72;;;4.60;71.00;;;;;;4975974;28;20054;-58
2021/12/23 10:08:23;;;;;;;5.18;2.63;;;4.70;69.70;;;;;;4975970;28;20042;-58
2021/12/23 10:10:59;;;;;;;4.90;3.03;;;4.90;71.10;;;;;;4975451;28;20038;-59
2021/12/23 10:38:42;;;;;;;7.90;3.75;;;7.40;58.60;;;;;;4964025;28;20353;-56
2021/12/23 10:41:28;;;;;;;9.68;4.30;;;7.60;58.00;;;;;;4978941;28;20049;-56
2021/12/23 10:44:01;;;;;;;10.23;4.57;;;7.80;58.90;;;;;;4977745;28;20050;-56
2021/12/23 10:46:30;;;;;;;6.20;3.28;;;8.00;59.40;;;;;;4978074;28;20346;-55
2021/12/23 10:52:05;;;;;;;8.27;4.32;;;8.50;57.50;;;;;;4978072;28;20113;-56
2021/12/23 11:00:45;;;;;;;12.80;4.22;;;9.10;54.00;;;;;;4997191;28;20107;-57
2021/12/23 11:03:29;;;;;;;8.90;4.00;;;9.30;53.30;;;;;;4998424;28;20054;-57
2021/12/23 11:06:00;;;;;;;7.07;3.05;;;9.40;53.00;;;;;;4997962;28;20053;-57
2021/12/23 11:39:53;;;;;;;6.57;2.85;;;10.20;50.50;;;;;;4996719;28;20050;-56
2021/12/23 11:42:36;;;;;;;5.47;2.58;;;10.20;51.10;;;;;;4997208;28;20088;-55
2021/12/23 11:45:04;;;;;;;4.78;2.90;;;10.20;50.90;;;;;;4996914;28;20049;-55
2021/12/23 11:47:31;;;;;;;6.38;3.20;;;10.30;50.40;;;;;;4997922;28;20472;-56
2021/12/23 11:49:58;;;;;;;5.53;2.80;;;10.40;49.50;;;;;;4996903;28;20053;-57
2021/12/23 11:52:25;;;;;;;;;;;10.40;49.00;;;;;;4997597;28;20057;-56
2021/12/23 11:54:52;;;;;;;5.43;2.97;;;10.50;48.50;;;;;;4986922;28;20407;-55
2021/12/23 11:57:23;;;;;;;8.18;3.50;;;10.40;49.00;;;;;;4978085;28;20575;-56
2021/12/23 12:00:02;;;;;;;6.88;3.70;;;10.40;48.30;;;;;;4977295;28;20092;-55
2021/12/23 12:02:32;;;;;;;7.68;3.05;;;10.30;49.10;;;;;;4977296;28;20057;-55
2021/12/23 12:05:04;;;;;;;8.75;2.97;;;10.20;50.30;;;;;;4979906;28;20045;-55
2021/12/23 12:07:31;;;;;;;8.40;3.83;;;10.10;51.10;;;;;;4983025;28;20563;-55
2021/12/23 12:10:01;;;;;;;6.82;3.05;;;9.90;52.30;;;;;;4998077;28;20050;-52
2021/12/23 12:12:31;;;;;;;9.70;4.10;;;9.80;52.80;;;;;;4980684;28;20038;-54
2021/12/23 12:15:00;;;;;;;4.63;3.00;;;9.70;53.10;;;;;;4979438;28;20585;-53
2021/12/23 12:17:27;;;;;;;7.50;3.05;;;9.60;53.20;;;;;;4979975;28;20038;-58
2021/12/23 12:20:04;;;;;;;12.10;4.00;;;9.60;54.10;;;;;;4994000;28;20073;-58
2021/12/23 12:22:50;;;;;;;6.32;2.63;;;9.40;52.90;;;;;;4998687;28;20048;-58
2021/12/23 12:25:23;;;;;;;14.02;3.50;;;9.40;52.80;;;;;;4999081;28;20053;-59
2021/12/23 12:27:56;;;;;;;7.05;3.30;;;9.30;52.40;;;;;;4998756;28;20058;-58
2021/12/23 12:31:01;;;;;;;7.00;3.50;;;9.20;52.90;;;;;;4997915;28;20045;-58
2021/12/23 12:33:28;;;;;;;5.63;3.13;;;9.10;52.40;;;;;;4997330;28;20582;-59
2021/12/23 12:36:00;;;;;;;9.77;3.40;;;9.10;52.60;;;;;;4988766;28;20050;-58
2021/12/23 12:38:48;;;;;;;7.93;4.15;;;9.10;52.80;;;;;;4976508;28;20054;-58
2021/12/23 12:41:25;;;;;;;9.65;4.28;;;9.30;52.40;;;;;;4976919;28;20373;-59
2021/12/23 12:44:13;;;;;;;13.82;5.00;;;9.50;51.90;;;;;;4977467;28;20049;-58
2021/12/23 12:46:48;;;;;;;12.70;4.78;;;9.70;52.40;;;;;;4977425;28;20051;-58
2021/12/23 12:49:28;;;;;;;12.98;4.60;;;10.00;53.00;;;;;;4976880;28;20125;-58
2021/12/23 12:52:30;;;;;;;14.45;5.80;;;10.20;53.00;;;;;;4977483;28;20047;-59
2021/12/23 12:55:05;;;;;;;18.52;5.78;;;10.30;53.50;;;;;;4985800;28;20093;-58
2021/12/23 12:57:51;;;;;;;25.65;6.95;;;10.40;52.80;;;;;;4976554;28;20046;-59
2021/12/23 13:00:39;;;;;;;11.40;5.55;;;10.60;51.80;;;;;;4976613;28;20042;-59
2021/12/23 13:03:12;;;;;;;16.20;5.93;;;10.60;51.40;;;;;;4977589;28;20057;-60
2021/12/23 13:05:46;;;;;;;13.32;6.63;;;10.80;51.70;;;;;;4976826;28;20050;-59
2021/12/23 13:08:28;;;;;;;21.88;7.20;;;10.90;51.40;;;;;;4976772;28;20130;-59
2021/12/23 13:11:22;;;;;;;14.85;6.57;;;10.90;51.00;;;;;;4949505;28;20399;-59
2021/12/23 13:15:16;;;;;;;11.20;6.03;;;10.90;52.90;;;;;;4963291;28;20528;-58
2021/12/23 13:18:20;;;;;;;14.18;6.40;;;11.00;54.00;;;;;;4995341;28;20054;-58
2021/12/23 13:21:05;;;;;;;14.50;5.18;;;10.90;54.20;;;;;;4988291;28;20466;-57
2021/12/23 13:23:40;;;;;;;14.07;5.40;;;10.90;54.20;;;;;;4997014;28;20077;-56
2021/12/23 13:26:20;;;;;;;11.75;5.30;;;10.80;54.20;;;;;;4993037;28;20710;-57
2021/12/23 13:28:58;;;;;;;14.63;6.22;;;10.80;54.60;;;;;;4996062;28;20096;-58
2021/12/23 13:31:28;;;;;;;9.32;5.28;;;10.70;54.60;;;;;;4996170;28;20050;-56
2021/12/23 13:34:01;;;;;;;15.20;5.50;;;10.60;54.90;;;;;;4996079;28;20100;-57
2021/12/23 13:36:46;;;;;;;11.23;5.47;;;10.50;55.10;;;;;;4984819;28;20404;-57
2021/12/23 13:39:17;;;;;;;9.85;4.60;;;10.40;55.40;;;;;;4977092;28;20035;-58
2021/12/23 13:42:08;;;;;;;12.18;5.35;;;10.30;56.00;;;;;;4976490;28;20066;-58
2021/12/23 13:44:38;;;;;;;8.43;4.22;;;10.10;56.20;;;;;;4977343;28;20054;-58
2021/12/23 13:47:15;;;;;;;8.57;4.60;;;9.90;56.10;;;;;;4976623;28;20259;-57
2021/12/23 13:49:50;;;;;;;5.45;3.38;;;9.50;57.50;;;;;;4978867;28;20054;-57
2021/12/23 13:52:25;;;;;;;6.90;3.97;;;9.10;58.20;;;;;;4980797;28;20038;-57
2021/12/23 13:54:55;;;;;;;6.32;4.15;;;8.60;59.30;;;;;;4990856;28;20511;-58
2021/12/23 13:57:24;;;;;;;7.90;4.03;;;8.30;60.30;;;;;;5000166;28;20096;-57
2021/12/23 13:59:55;;;;;;;7.35;3.45;;;8.10;61.40;;;;;;4998902;28;20108;-57
2021/12/23 14:02:25;;;;;;;6.50;3.92;;;7.90;62.40;;;;;;5000348;28;20443;-57
2021/12/23 14:04:59;;;;;;;9.68;5.03;;;7.80;63.20;;;;;;4999643;28;20488;-57
2021/12/23 14:07:26;;;;;;;8.40;3.88;;;7.60;64.20;;;;;;5000165;28;20041;-57
2021/12/23 14:09:57;;;;;;;5.95;4.13;;;7.40;65.60;;;;;;4999721;28;20080;-57
2021/12/23 14:12:53;;;;;;;10.75;4.20;;;7.30;68.70;;;;;;4999631;28;20111;-57
2021/12/23 14:15:27;;;;;;;7.80;4.22;;;7.00;71.10;;;;;;5000561;28;20076;-58
2021/12/23 14:23:30;;;;;;;5.13;2.80;;;6.40;81.90;;;;;;4999885;28;20159;-56
2021/12/23 14:26:02;;;;;;;6.13;3.75;;;6.30;85.20;;;;;;4999295;28;20046;-57